createdAt,value
2019-01-30T00:01:46.572Z,-4.80
2019-01-30T00:04:15.931Z,-4.80
2019-01-30T00:06:45.283Z,-4.80
2019-01-30T00:09:14.642Z,-4.90
2019-01-30T00:11:44.044Z,-5.00
2019-01-30T00:14:13.510Z,-5.00
2019-01-30T00:16:42.864Z,-5.00
2019-01-30T00:19:12.219Z,-5.00
2019-01-30T00:21:41.572Z,-5.00
2019-01-30T00:24:10.940Z,-4.90
2019-01-30T00:26:40.371Z,-4.90
2019-01-30T00:29:09.759Z,-4.90
2019-01-30T00:31:39.099Z,-4.80
2019-01-30T00:34:08.565Z,-4.90
2019-01-30T00:36:37.899Z,-4.90
2019-01-30T00:39:08.284Z,-5.00
2019-01-30T00:41:37.652Z,-5.10
2019-01-30T00:44:07.010Z,-5.10
2019-01-30T00:46:36.375Z,-5.10
2019-01-30T00:49:06.035Z,-5.10
2019-01-30T00:51:35.418Z,-5.00
2019-01-30T00:54:04.773Z,-4.90
2019-01-30T00:56:34.139Z,-4.90
2019-01-30T00:59:03.484Z,-4.90
2019-01-30T01:01:32.906Z,-4.90
2019-01-30T01:04:02.248Z,-4.90
2019-01-30T01:06:31.618Z,-5.00
2019-01-30T01:09:00.955Z,-5.00
2019-01-30T01:11:30.329Z,-5.00
2019-01-30T01:13:59.671Z,-5.10
2019-01-30T01:16:29.055Z,-5.10
2019-01-30T01:18:58.395Z,-5.10
2019-01-30T01:21:27.768Z,-5.10
2019-01-30T01:23:57.112Z,-5.10
2019-01-30T01:26:26.472Z,-5.10
2019-01-30T01:28:55.811Z,-5.00
2019-01-30T01:31:25.179Z,-4.80
2019-01-30T01:33:54.558Z,-4.60
2019-01-30T01:36:23.935Z,-4.70
2019-01-30T01:38:53.287Z,-4.60
2019-01-30T01:41:22.653Z,-4.50
2019-01-30T01:43:51.987Z,-4.30
2019-01-30T01:46:21.355Z,-4.20
2019-01-30T01:48:50.699Z,-4.10
2019-01-30T01:51:20.069Z,-4.00
2019-01-30T01:53:49.415Z,-3.90
2019-01-30T01:56:18.779Z,-3.80
2019-01-30T01:58:48.127Z,-3.70
2019-01-30T02:01:17.487Z,-3.70
2019-01-30T02:03:46.881Z,-3.70
2019-01-30T02:06:16.242Z,-3.70
2019-01-30T02:08:45.588Z,-3.70
2019-01-30T02:11:14.943Z,-3.60
2019-01-30T02:13:44.287Z,-3.50
2019-01-30T02:16:13.656Z,-3.50
2019-01-30T02:18:42.999Z,-3.50
2019-01-30T02:21:12.367Z,-3.40
2019-01-30T02:23:41.739Z,-3.40
2019-01-30T02:26:11.079Z,-3.30
2019-01-30T02:28:40.447Z,-3.30
2019-01-30T02:31:09.783Z,-3.30
2019-01-30T02:33:39.146Z,-3.30
2019-01-30T02:36:08.514Z,-3.30
2019-01-30T02:38:37.900Z,-3.30
2019-01-30T02:41:07.231Z,-3.30
2019-01-30T02:43:36.611Z,-3.20
2019-01-30T02:46:05.978Z,-3.30
2019-01-30T02:48:35.366Z,-3.20
2019-01-30T02:51:04.720Z,-3.20
2019-01-30T02:53:34.148Z,-3.20
2019-01-30T02:56:03.596Z,-3.20
2019-01-30T02:58:32.963Z,-3.20
2019-01-30T03:01:02.310Z,-3.30
2019-01-30T03:03:31.687Z,-3.30
2019-01-30T03:06:01.037Z,-3.30
2019-01-30T03:08:30.415Z,-3.30
2019-01-30T03:10:59.756Z,-3.30
2019-01-30T03:13:29.124Z,-3.40
2019-01-30T03:15:58.467Z,-3.40
2019-01-30T03:18:27.841Z,-3.40
2019-01-30T03:20:57.211Z,-3.40
2019-01-30T03:23:26.584Z,-3.40
2019-01-30T03:25:55.925Z,-3.40
2019-01-30T03:28:25.294Z,-3.40
2019-01-30T03:30:54.637Z,-3.40
2019-01-30T03:33:24.014Z,-3.50
2019-01-30T03:35:53.385Z,-3.40
2019-01-30T03:38:22.754Z,-3.40
2019-01-30T03:40:52.096Z,-3.40
2019-01-30T03:43:21.383Z,-3.40
2019-01-30T03:45:50.730Z,-3.40
2019-01-30T03:48:20.366Z,-3.50
2019-01-30T03:50:49.727Z,-3.50
2019-01-30T03:53:19.068Z,-3.50
2019-01-30T03:55:48.424Z,-3.50
2019-01-30T03:58:17.795Z,-3.50
2019-01-30T04:00:47.240Z,-3.50
2019-01-30T04:03:16.659Z,-3.50
2019-01-30T04:05:46.028Z,-3.40
2019-01-30T04:08:15.391Z,-3.40
2019-01-30T04:10:44.776Z,-3.40
2019-01-30T04:13:14.114Z,-3.40
2019-01-30T04:15:43.460Z,-3.40
2019-01-30T04:18:12.787Z,-3.40
2019-01-30T04:20:42.143Z,-3.40
2019-01-30T04:23:11.487Z,-3.40
2019-01-30T04:25:40.904Z,-3.40
2019-01-30T04:28:10.244Z,-3.40
2019-01-30T04:30:39.594Z,-3.40
2019-01-30T04:33:08.930Z,-3.40
2019-01-30T04:35:38.310Z,-3.50
2019-01-30T04:38:07.647Z,-3.50
2019-01-30T04:40:37.002Z,-3.50
2019-01-30T04:43:06.339Z,-3.50
2019-01-30T04:45:35.704Z,-3.40
2019-01-30T04:48:05.151Z,-3.40
2019-01-30T04:50:34.510Z,-3.30
2019-01-30T04:53:03.839Z,-3.30
2019-01-30T04:55:33.199Z,-3.40
2019-01-30T04:58:02.535Z,-3.30
2019-01-30T05:00:31.890Z,-3.30
2019-01-30T05:03:01.231Z,-3.30
2019-01-30T05:05:30.586Z,-3.20
2019-01-30T05:07:59.955Z,-3.20
2019-01-30T05:10:29.291Z,-3.20
2019-01-30T05:12:58.652Z,-3.10
2019-01-30T05:15:27.989Z,-3.10
2019-01-30T05:17:57.348Z,-3.10
2019-01-30T05:20:26.683Z,-3.10
2019-01-30T05:22:56.050Z,-3.20
2019-01-30T05:25:25.383Z,-3.20
2019-01-30T05:27:54.739Z,-3.20
2019-01-30T05:30:26.763Z,-3.20
2019-01-30T05:32:56.126Z,-3.20
2019-01-30T05:35:25.475Z,-3.10
2019-01-30T05:37:54.837Z,-3.10
2019-01-30T05:40:24.202Z,-3.20
2019-01-30T05:42:53.559Z,-3.10
2019-01-30T05:45:23.148Z,-3.10
2019-01-30T05:47:52.507Z,-3.10
2019-01-30T05:50:21.847Z,-3.10
2019-01-30T05:52:51.202Z,-3.10
2019-01-30T05:55:20.546Z,-3.10
2019-01-30T05:57:49.903Z,-3.10
2019-01-30T06:00:23.703Z,-3.10
2019-01-30T06:02:53.098Z,-3.10
2019-01-30T06:05:22.402Z,-3.10
2019-01-30T06:07:51.759Z,-3.00
2019-01-30T06:10:21.151Z,-3.10
2019-01-30T06:12:50.500Z,-3.00
2019-01-30T06:15:19.943Z,-3.00
2019-01-30T06:17:49.303Z,-3.00
2019-01-30T06:20:20.771Z,-3.00
2019-01-30T06:22:50.345Z,-3.00
2019-01-30T06:25:19.677Z,-3.00
2019-01-30T06:27:49.036Z,-2.90
2019-01-30T06:30:19.230Z,-2.90
2019-01-30T06:32:48.595Z,-2.90
2019-01-30T06:35:18.754Z,-2.90
2019-01-30T06:37:48.510Z,-2.90
2019-01-30T06:40:23.118Z,-2.90
2019-01-30T06:42:52.398Z,-2.90
2019-01-30T06:45:21.815Z,-2.90
2019-01-30T06:47:51.091Z,-2.90
2019-01-30T06:50:20.539Z,-2.80
2019-01-30T06:52:49.876Z,-2.80
2019-01-30T06:55:19.228Z,-2.80
2019-01-30T06:57:48.558Z,-2.80
2019-01-30T07:00:19.954Z,-2.80
2019-01-30T07:02:49.400Z,-2.80
2019-01-30T07:05:18.931Z,-2.70
2019-01-30T07:07:48.265Z,-2.70
2019-01-30T07:10:19.898Z,-2.70
2019-01-30T07:12:49.247Z,-2.60
2019-01-30T07:15:18.707Z,-2.60
2019-01-30T07:17:48.035Z,-2.60
2019-01-30T07:20:17.602Z,-2.60
2019-01-30T07:22:46.938Z,-2.60
2019-01-30T07:25:17.264Z,-2.60
2019-01-30T07:27:46.594Z,-2.60
2019-01-30T07:30:18.700Z,-2.50
2019-01-30T07:32:48.035Z,-2.40
2019-01-30T07:35:17.411Z,-2.40
2019-01-30T07:37:46.751Z,-2.40
2019-01-30T07:40:16.144Z,-2.50
2019-01-30T07:42:45.478Z,-2.40
2019-01-30T07:45:16.000Z,-2.40
2019-01-30T07:47:45.334Z,-2.40
2019-01-30T07:50:14.991Z,-2.40
2019-01-30T07:52:44.323Z,-2.40
2019-01-30T07:55:15.227Z,-2.30
2019-01-30T07:57:44.686Z,-2.30
2019-01-30T08:00:23.129Z,-2.20
2019-01-30T08:02:53.591Z,-2.20
2019-01-30T08:05:23.286Z,-2.20
2019-01-30T08:07:52.748Z,-2.10
2019-01-30T08:10:22.226Z,-2.00
2019-01-30T08:12:51.986Z,-1.90
2019-01-30T08:15:21.814Z,-1.90
2019-01-30T08:17:51.169Z,-1.90
2019-01-30T08:20:21.648Z,-1.80
2019-01-30T08:22:50.994Z,-1.80
2019-01-30T08:25:22.009Z,-1.80
2019-01-30T08:27:51.526Z,-1.70
2019-01-30T08:30:30.922Z,-1.70
2019-01-30T08:33:05.669Z,-1.70
2019-01-30T08:35:35.504Z,-1.60
2019-01-30T08:38:05.467Z,-1.60
2019-01-30T08:40:34.819Z,-1.50
2019-01-30T08:43:04.186Z,-1.50
2019-01-30T08:45:33.631Z,-1.40
2019-01-30T08:48:03.083Z,-1.30
2019-01-30T08:50:32.336Z,-1.30
2019-01-30T08:53:01.687Z,-1.30
2019-01-30T08:55:31.019Z,-1.40
2019-01-30T08:58:00.377Z,-1.40
2019-01-30T09:00:30.153Z,-1.40
2019-01-30T09:02:59.505Z,-1.40
2019-01-30T09:05:28.871Z,-1.30
2019-01-30T09:07:58.336Z,-1.30
2019-01-30T09:10:27.803Z,-1.30
2019-01-30T09:12:57.173Z,-1.30
2019-01-30T09:15:27.311Z,-1.20
2019-01-30T09:17:56.683Z,-1.10
2019-01-30T09:20:27.247Z,-1.10
2019-01-30T09:22:56.599Z,-1.10
2019-01-30T09:25:27.716Z,-1.00
2019-01-30T09:27:57.103Z,-1.10
2019-01-30T09:30:34.696Z,-1.00
2019-01-30T09:33:04.394Z,-0.90
2019-01-30T09:35:33.854Z,-0.90
2019-01-30T09:38:03.152Z,-0.90
2019-01-30T09:40:32.473Z,-0.90
2019-01-30T09:43:01.852Z,-0.90
2019-01-30T09:45:31.191Z,-0.90
2019-01-30T09:48:00.522Z,-0.80
2019-01-30T09:50:29.881Z,-0.80
2019-01-30T09:52:59.195Z,-0.80
2019-01-30T09:55:28.580Z,-0.80
2019-01-30T09:57:57.922Z,-0.80
2019-01-30T10:00:29.263Z,-0.80
2019-01-30T10:02:58.619Z,-0.90
2019-01-30T10:05:27.976Z,-0.90
2019-01-30T10:07:57.328Z,-0.90
2019-01-30T10:10:28.751Z,-0.90
2019-01-30T10:12:58.118Z,-0.90
2019-01-30T10:15:30.071Z,-0.90
2019-01-30T10:17:59.425Z,-0.90
2019-01-30T10:20:28.980Z,-0.90
2019-01-30T10:22:58.336Z,-0.90
2019-01-30T10:25:27.777Z,-0.90
2019-01-30T10:27:57.138Z,-1.00
2019-01-30T10:30:28.942Z,-1.10
2019-01-30T10:32:58.274Z,-1.10
2019-01-30T10:35:27.855Z,-1.00
2019-01-30T10:37:57.444Z,-1.10
2019-01-30T10:40:26.826Z,-1.10
2019-01-30T10:42:57.406Z,-1.10
2019-01-30T10:45:26.935Z,-1.10
2019-01-30T10:47:56.330Z,-1.10
2019-01-30T10:50:26.707Z,-1.10
2019-01-30T10:52:56.922Z,-1.00
2019-01-30T10:55:27.702Z,-1.00
2019-01-30T10:57:58.864Z,-1.00
2019-01-30T11:00:33.586Z,-0.90
2019-01-30T11:03:02.922Z,-0.90
2019-01-30T11:05:32.251Z,-0.80
2019-01-30T11:08:01.606Z,-0.80
2019-01-30T11:10:30.960Z,-0.60
2019-01-30T11:13:00.315Z,-0.60
2019-01-30T11:15:29.958Z,-0.50
2019-01-30T11:17:59.638Z,-0.40
2019-01-30T11:20:29.351Z,-0.40
2019-01-30T11:22:58.763Z,-0.30
2019-01-30T11:25:30.659Z,-0.20
2019-01-30T11:28:00.070Z,-0.10
2019-01-30T11:30:29.442Z,0.00
2019-01-30T11:32:58.805Z,0.10
2019-01-30T11:35:28.155Z,0.10
2019-01-30T11:37:57.514Z,0.20
2019-01-30T11:40:27.175Z,0.40
2019-01-30T11:42:56.533Z,1.40
2019-01-30T11:45:34.319Z,2.50
2019-01-30T11:48:03.791Z,3.00
2019-01-30T11:50:33.132Z,3.70
2019-01-30T11:53:02.486Z,5.00
2019-01-30T11:55:31.802Z,5.90
2019-01-30T11:58:01.155Z,6.20
2019-01-30T12:00:49.695Z,6.10
2019-01-30T12:03:19.056Z,6.10
2019-01-30T12:05:48.539Z,6.10
2019-01-30T12:08:18.037Z,5.80
2019-01-30T12:10:47.355Z,5.10
2019-01-30T12:13:16.815Z,4.50
2019-01-30T12:15:46.134Z,4.00
2019-01-30T12:18:15.499Z,3.50
2019-01-30T12:20:44.836Z,3.20
2019-01-30T12:23:14.205Z,2.90
2019-01-30T12:25:43.522Z,2.50
2019-01-30T12:28:12.892Z,2.20
2019-01-30T12:30:42.230Z,2.00
2019-01-30T12:33:11.570Z,1.80
2019-01-30T12:35:40.924Z,1.80
2019-01-30T12:38:10.299Z,1.70
2019-01-30T12:40:39.627Z,1.70
2019-01-30T12:43:08.955Z,1.70
2019-01-30T12:45:38.430Z,1.60
2019-01-30T12:48:10.707Z,1.30
2019-01-30T12:50:39.227Z,1.20
2019-01-30T12:53:08.550Z,1.10
2019-01-30T12:55:37.902Z,1.00
2019-01-30T12:58:07.227Z,1.00
2019-01-30T13:00:38.554Z,0.90
2019-01-30T13:03:07.897Z,0.90
2019-01-30T13:05:37.551Z,0.90
2019-01-30T13:08:06.875Z,0.80
2019-01-30T13:10:36.247Z,0.70
2019-01-30T13:13:05.701Z,0.70
2019-01-30T13:15:35.047Z,0.70
2019-01-30T13:18:17.612Z,0.70
2019-01-30T13:20:36.334Z,0.70
2019-01-30T13:23:05.774Z,0.70
2019-01-30T13:25:35.359Z,0.80
2019-01-30T13:28:05.349Z,0.70
2019-01-30T13:30:36.511Z,0.70
2019-01-30T13:33:07.704Z,0.70
2019-01-30T13:35:37.094Z,0.60
2019-01-30T13:38:06.838Z,0.50
2019-01-30T13:40:37.938Z,0.40
2019-01-30T13:43:07.430Z,0.30
2019-01-30T13:45:36.830Z,0.30
2019-01-30T13:48:12.231Z,0.30
2019-01-30T13:50:41.595Z,0.30
2019-01-30T13:53:10.947Z,0.30
2019-01-30T13:55:40.286Z,0.30
2019-01-30T13:58:09.631Z,0.30
2019-01-30T14:00:39.480Z,0.30
2019-01-30T14:03:09.187Z,0.30
2019-01-30T14:05:38.563Z,0.30
2019-01-30T14:08:09.848Z,0.30
2019-01-30T14:10:39.210Z,0.30
2019-01-30T14:13:08.548Z,0.30
2019-01-30T14:15:37.884Z,0.40
2019-01-30T14:18:07.261Z,0.40
2019-01-30T14:20:36.574Z,0.50
2019-01-30T14:23:06.298Z,0.50
2019-01-30T14:25:35.728Z,0.50
2019-01-30T14:28:05.247Z,0.40
2019-01-30T14:30:39.114Z,0.40
2019-01-30T14:33:08.584Z,0.30
2019-01-30T14:35:40.196Z,0.30
2019-01-30T14:38:09.608Z,0.30
2019-01-30T14:40:38.950Z,0.30
2019-01-30T14:43:08.297Z,0.20
2019-01-30T14:45:37.624Z,0.20
2019-01-30T14:48:07.001Z,0.20
2019-01-30T14:50:36.330Z,0.20
2019-01-30T14:53:05.812Z,0.10
2019-01-30T14:55:35.135Z,0.10
2019-01-30T14:58:06.502Z,0.10
2019-01-30T15:00:35.839Z,0.20
2019-01-30T15:03:05.408Z,0.30
2019-01-30T15:05:34.718Z,0.30
2019-01-30T15:08:04.175Z,0.30
2019-01-30T15:10:33.538Z,0.30
2019-01-30T15:13:02.902Z,0.30
2019-01-30T15:15:32.751Z,0.40
2019-01-30T15:18:02.046Z,0.40
2019-01-30T15:20:33.362Z,0.40
2019-01-30T15:23:03.195Z,0.30
2019-01-30T15:25:32.632Z,0.30
2019-01-30T15:28:02.300Z,0.30
2019-01-30T15:30:45.879Z,0.20
2019-01-30T15:33:15.217Z,0.20
2019-01-30T15:35:44.676Z,0.10
2019-01-30T15:38:15.843Z,0.10
2019-01-30T15:40:45.175Z,0.10
2019-01-30T15:43:14.520Z,0.00
2019-01-30T15:45:43.851Z,0.00
2019-01-30T15:48:13.203Z,0.00
2019-01-30T15:50:43.051Z,0.00
2019-01-30T15:53:14.590Z,0.00
2019-01-30T15:55:43.930Z,0.10
2019-01-30T15:58:13.451Z,0.20
2019-01-30T16:01:15.678Z,0.40
2019-01-30T16:03:45.039Z,0.50
2019-01-30T16:06:14.371Z,0.60
2019-01-30T16:08:43.762Z,0.70
2019-01-30T16:11:13.091Z,0.90
2019-01-30T16:13:42.440Z,1.00
2019-01-30T16:16:11.784Z,1.00
2019-01-30T16:18:41.131Z,1.10
2019-01-30T16:21:10.485Z,1.10
2019-01-30T16:23:39.819Z,1.20
2019-01-30T16:26:09.166Z,1.20
2019-01-30T16:28:38.507Z,1.10
2019-01-30T16:31:07.886Z,1.10
2019-01-30T16:33:37.203Z,1.20
2019-01-30T16:36:06.678Z,1.10
2019-01-30T16:38:36.077Z,1.10
2019-01-30T16:41:05.524Z,1.20
2019-01-30T16:43:34.867Z,1.10
2019-01-30T16:46:04.539Z,1.10
2019-01-30T16:48:33.882Z,1.10
2019-01-30T16:51:03.371Z,1.10
2019-01-30T16:53:32.662Z,1.00
2019-01-30T16:56:02.052Z,1.00
2019-01-30T16:58:31.490Z,1.10
2019-01-30T17:01:00.851Z,1.10
2019-01-30T17:03:30.199Z,1.10
2019-01-30T17:06:06.943Z,1.10
2019-01-30T17:08:30.542Z,1.10
2019-01-30T17:10:59.888Z,1.10
2019-01-30T17:13:29.218Z,1.10
2019-01-30T17:15:58.586Z,1.10
2019-01-30T17:18:27.920Z,1.00
2019-01-30T17:20:57.284Z,1.10
2019-01-30T17:23:26.610Z,1.10
2019-01-30T17:25:56.063Z,1.10
2019-01-30T17:28:25.394Z,1.10
2019-01-30T17:31:19.215Z,1.10
2019-01-30T17:33:48.547Z,1.10
2019-01-30T17:36:18.855Z,1.00
2019-01-30T17:38:48.267Z,1.00
2019-01-30T17:41:17.616Z,1.00
2019-01-30T17:43:46.946Z,1.00
2019-01-30T17:46:16.307Z,0.90
2019-01-30T17:48:45.642Z,0.90
2019-01-30T17:51:14.983Z,0.90
2019-01-30T17:53:44.344Z,0.90
2019-01-30T17:56:13.686Z,0.90
2019-01-30T17:58:43.040Z,0.80
2019-01-30T18:01:12.375Z,0.80
2019-01-30T18:03:41.805Z,0.90
2019-01-30T18:06:12.903Z,0.90
2019-01-30T18:08:42.490Z,0.90
2019-01-30T18:11:11.843Z,0.90
2019-01-30T18:13:41.211Z,0.80
2019-01-30T18:16:10.558Z,0.80
2019-01-30T18:18:39.927Z,0.90
2019-01-30T18:21:09.268Z,0.90
2019-01-30T18:23:38.689Z,0.80
2019-01-30T18:26:08.026Z,0.80
2019-01-30T18:28:37.397Z,0.90
2019-01-30T18:31:06.727Z,0.80
2019-01-30T18:33:36.211Z,0.90
2019-01-30T18:36:05.771Z,0.80
2019-01-30T18:38:35.964Z,0.80
2019-01-30T18:41:05.383Z,0.80
2019-01-30T18:43:34.730Z,0.80
2019-01-30T18:46:04.172Z,0.80
2019-01-30T18:48:33.526Z,0.80
2019-01-30T18:51:02.871Z,0.70
2019-01-30T18:53:32.228Z,0.70
2019-01-30T18:56:01.643Z,0.70
2019-01-30T18:58:31.019Z,0.70
2019-01-30T19:01:00.350Z,0.70
2019-01-30T19:03:29.714Z,0.70
2019-01-30T19:05:59.063Z,0.70
2019-01-30T19:08:31.234Z,0.60
2019-01-30T19:10:59.415Z,0.60
2019-01-30T19:13:28.771Z,0.50
2019-01-30T19:15:58.102Z,0.50
2019-01-30T19:18:27.457Z,0.40
2019-01-30T19:20:56.812Z,0.40
2019-01-30T19:23:26.150Z,0.40
2019-01-30T19:25:55.519Z,0.40
2019-01-30T19:28:24.847Z,0.40
2019-01-30T19:30:54.394Z,0.40
2019-01-30T19:33:23.723Z,0.40
2019-01-30T19:35:53.111Z,0.40
2019-01-30T19:38:22.443Z,0.40
2019-01-30T19:40:51.806Z,0.30
2019-01-30T19:43:21.175Z,0.30
2019-01-30T19:45:50.538Z,0.30
2019-01-30T19:48:19.938Z,0.30
2019-01-30T19:50:49.360Z,0.30
2019-01-30T19:53:18.626Z,0.30
2019-01-30T19:55:47.988Z,0.30
2019-01-30T19:58:17.319Z,0.40
2019-01-30T20:00:48.530Z,0.40
2019-01-30T20:03:36.060Z,0.30
2019-01-30T20:06:06.882Z,0.40
2019-01-30T20:08:36.222Z,0.40
2019-01-30T20:11:05.583Z,0.30
2019-01-30T20:13:34.922Z,0.40
2019-01-30T20:16:04.374Z,0.30
2019-01-30T20:18:33.735Z,0.30
2019-01-30T20:21:03.091Z,0.30
2019-01-30T20:23:32.487Z,0.30
2019-01-30T20:26:01.787Z,0.30
2019-01-30T20:28:31.128Z,0.30
2019-01-30T20:31:01.335Z,0.30
2019-01-30T20:33:30.769Z,0.30
2019-01-30T20:36:00.139Z,0.30
2019-01-30T20:38:29.475Z,0.20
2019-01-30T20:40:58.871Z,0.10
2019-01-30T20:43:28.258Z,0.10
2019-01-30T20:45:57.599Z,0.10
2019-01-30T20:48:26.978Z,0.10
2019-01-30T20:50:57.143Z,0.10
2019-01-30T20:53:26.475Z,0.20
2019-01-30T20:55:55.813Z,0.10
2019-01-30T20:58:25.162Z,0.10
2019-01-30T21:00:54.499Z,0.10
2019-01-30T21:03:23.866Z,0.10
2019-01-30T21:05:53.206Z,0.20
2019-01-30T21:08:22.558Z,0.20
2019-01-30T21:10:51.951Z,0.20
2019-01-30T21:13:21.330Z,0.20
2019-01-30T21:15:50.661Z,0.20
2019-01-30T21:18:20.033Z,0.20
2019-01-30T21:20:49.366Z,0.20
2019-01-30T21:23:18.730Z,0.20
2019-01-30T21:25:49.954Z,0.20
2019-01-30T21:28:19.071Z,0.20
2019-01-30T21:30:48.402Z,0.20
2019-01-30T21:33:17.791Z,0.20
2019-01-30T21:35:47.148Z,0.30
2019-01-30T21:38:16.499Z,0.20
2019-01-30T21:40:45.945Z,0.20
2019-01-30T21:43:15.395Z,0.30
2019-01-30T21:45:44.726Z,0.30
2019-01-30T21:48:14.083Z,0.30
2019-01-30T21:50:43.490Z,0.30
2019-01-30T21:53:12.774Z,0.30
2019-01-30T21:55:42.155Z,0.40
2019-01-30T21:58:11.512Z,0.40
2019-01-30T22:00:40.867Z,0.40
2019-01-30T22:03:10.226Z,0.40
2019-01-30T22:05:39.559Z,0.40
2019-01-30T22:08:08.893Z,0.40
2019-01-30T22:10:38.247Z,0.40
2019-01-30T22:13:07.679Z,0.40
2019-01-30T22:15:37.045Z,0.40
2019-01-30T22:18:06.379Z,0.30
2019-01-30T22:20:35.735Z,0.30
2019-01-30T22:23:05.076Z,0.30
2019-01-30T22:25:34.429Z,0.30
2019-01-30T22:28:03.859Z,0.30
2019-01-30T22:30:34.607Z,0.30
2019-01-30T22:33:03.943Z,0.30
2019-01-30T22:35:33.398Z,0.30
2019-01-30T22:38:12.149Z,0.30
2019-01-30T22:40:33.794Z,0.30
2019-01-30T22:43:03.126Z,0.20
2019-01-30T22:45:32.479Z,0.20
2019-01-30T22:48:01.811Z,0.20
2019-01-30T22:50:31.162Z,0.20
2019-01-30T22:53:00.486Z,0.20
2019-01-30T22:55:29.898Z,0.20
2019-01-30T22:57:59.242Z,0.20
2019-01-30T23:01:05.759Z,0.20
2019-01-30T23:03:48.940Z,0.20
2019-01-30T23:06:38.211Z,0.10
2019-01-30T23:09:57.585Z,0.10
2019-01-30T23:13:28.927Z,0.10
2019-01-30T23:16:39.097Z,0.20
2019-01-30T23:19:41.209Z,0.20
2019-01-30T23:22:35.439Z,0.10
2019-01-30T23:25:59.445Z,0.20
2019-01-30T23:29:21.976Z,0.20
2019-01-30T23:32:18.468Z,0.10
2019-01-30T23:35:26.312Z,0.20
2019-01-30T23:38:11.611Z,0.10
2019-01-30T23:41:00.354Z,0.10
2019-01-30T23:44:14.514Z,0.10
2019-01-30T23:47:20.830Z,0.10
2019-01-30T23:50:31.507Z,0.10
2019-01-30T23:53:40.227Z,0.10
2019-01-30T23:56:18.887Z,0.10
2019-01-30T23:59:15.570Z,0.10
